CSN6021 ZGHA-RJOO
Flight info
| Callsign | CSN6021 |
|---|---|
| Flight time | 2h 45m |
| Altitude | 37100 |
| Route | GUDRO W56 IDPOG A581 WHA R343 PK W116 JTN G327 LAMEN/N0451F390 A593 SADLI Y590 BEDAR Y591 FUE Y35 SALTY Y401 KAINA Y753 IZUMI |
| Aircraft | B38M/M-SDE1FGHILORVWXY/HB1 |
Departure
| Time | 2026-05-07 16:14 |
|---|---|
| Airport | Changsha Huanghua International Airport (ZGHA) |
Arrival
| Time | 2026-05-07 19:00 |
|---|---|
| Airport | Osaka Itami International Airport (RJOO) |
| Time | Latitude | Longitude | Altitude | Speed | Heading |
|---|---|---|---|---|---|
| 2026-05-07 15:51 | 28.19575 | 113.21571 | 216 ft | 0 kts | 268° |
| 2026-05-07 16:03 | 28.19576 | 113.21590 | 219 ft | 4 kts | 268° |
| 2026-05-07 16:04 | 28.19577 | 113.21615 | 219 ft | 3 kts | 266° |
| 2026-05-07 16:04 | 28.19585 | 113.21640 | 222 ft | 4 kts | 214° |
| 2026-05-07 16:04 | 28.19609 | 113.21647 | 219 ft | 4 kts | 178° |
| 2026-05-07 16:04 | 28.19615 | 113.21646 | 217 ft | 0 kts | 177° |
| 2026-05-07 16:06 | 28.19604 | 113.21647 | 219 ft | 3 kts | 177° |
| 2026-05-07 16:07 | 28.19562 | 113.21649 | 219 ft | 9 kts | 178° |
| 2026-05-07 16:07 | 28.19481 | 113.21653 | 222 ft | 13 kts | 177° |
| 2026-05-07 16:07 | 28.19408 | 113.21676 | 216 ft | 8 kts | 128° |
| 2026-05-07 16:07 | 28.19395 | 113.21738 | 217 ft | 8 kts | 116° |
| 2026-05-07 16:08 | 28.19343 | 113.21763 | 219 ft | 9 kts | 176° |
| 2026-05-07 16:08 | 28.19269 | 113.21767 | 219 ft | 12 kts | 177° |
| 2026-05-07 16:08 | 28.19159 | 113.21774 | 217 ft | 19 kts | 177° |
| 2026-05-07 16:08 | 28.19004 | 113.21784 | 224 ft | 24 kts | 176° |
| 2026-05-07 16:09 | 28.18827 | 113.21794 | 216 ft | 26 kts | 176° |
| 2026-05-07 16:09 | 28.18684 | 113.21803 | 216 ft | 20 kts | 176° |
| 2026-05-07 16:09 | 28.18539 | 113.21812 | 216 ft | 22 kts | 177° |
| 2026-05-07 16:09 | 28.18379 | 113.21822 | 216 ft | 24 kts | 176° |
| 2026-05-07 16:10 | 28.18210 | 113.21833 | 216 ft | 25 kts | 176° |
| 2026-05-07 16:10 | 28.18027 | 113.21844 | 221 ft | 27 kts | 177° |
| 2026-05-07 16:10 | 28.17879 | 113.21853 | 217 ft | 10 kts | 177° |
| 2026-05-07 16:10 | 28.17803 | 113.21858 | 217 ft | 12 kts | 173° |
| 2026-05-07 16:11 | 28.17739 | 113.21907 | 220 ft | 7 kts | 94° |
| 2026-05-07 16:11 | 28.17740 | 113.21932 | 220 ft | 0 kts | 87° |
| 2026-05-07 16:11 | 28.17740 | 113.21935 | 220 ft | 1 kts | 87° |
| 2026-05-07 16:12 | 28.17741 | 113.21953 | 226 ft | 4 kts | 87° |
| 2026-05-07 16:12 | 28.17743 | 113.22007 | 218 ft | 9 kts | 87° |
| 2026-05-07 16:12 | 28.17748 | 113.22041 | 218 ft | 2 kts | 53° |
| 2026-05-07 16:12 | 28.17761 | 113.22045 | 226 ft | 3 kts | 4° |
| 2026-05-07 16:13 | 28.17795 | 113.22045 | 221 ft | 10 kts | 357° |
| 2026-05-07 16:13 | 28.17991 | 113.22033 | 221 ft | 59 kts | 357° |
| 2026-05-07 16:13 | 28.18621 | 113.21995 | 220 ft | 120 kts | 357° |
| 2026-05-07 16:13 | 28.19636 | 113.21928 | 254 ft | 163 kts | 356° |
| 2026-05-07 16:14 | 28.20805 | 113.21872 | 775 ft | 168 kts | 357° |
| 2026-05-07 16:14 | 28.21917 | 113.21830 | 1743 ft | 150 kts | 359° |
| 2026-05-07 16:14 | 28.22954 | 113.21764 | 2418 ft | 157 kts | 358° |
| 2026-05-07 16:14 | 28.24117 | 113.21634 | 2848 ft | 171 kts | 359° |
| 2026-05-07 16:15 | 28.25288 | 113.21487 | 3639 ft | 170 kts | 359° |
| 2026-05-07 16:15 | 28.26508 | 113.21380 | 4109 ft | 189 kts | 2° |
| 2026-05-07 16:15 | 28.27855 | 113.21492 | 4537 ft | 205 kts | 20° |
| 2026-05-07 16:15 | 28.28993 | 113.22509 | 5099 ft | 207 kts | 59° |
| 2026-05-07 16:16 | 28.29599 | 113.23914 | 5992 ft | 209 kts | 63° |
| 2026-05-07 16:16 | 28.30378 | 113.25336 | 6644 ft | 212 kts | 53° |
| 2026-05-07 16:16 | 28.31243 | 113.26672 | 7499 ft | 210 kts | 52° |
| 2026-05-07 16:16 | 28.32139 | 113.28049 | 7997 ft | 227 kts | 54° |
| 2026-05-07 16:17 | 28.33067 | 113.29531 | 8687 ft | 230 kts | 54° |
| 2026-05-07 16:17 | 28.34000 | 113.31076 | 9225 ft | 246 kts | 56° |
| 2026-05-07 16:17 | 28.34996 | 113.32752 | 9632 ft | 266 kts | 56° |
| 2026-05-07 16:17 | 28.36072 | 113.34567 | 10017 ft | 287 kts | 56° |
| 2026-05-07 16:18 | 28.37222 | 113.36511 | 10356 ft | 307 kts | 56° |
| 2026-05-07 16:18 | 28.38468 | 113.38618 | 10687 ft | 328 kts | 56° |
| 2026-05-07 16:18 | 28.39773 | 113.40827 | 10973 ft | 348 kts | 55° |
| 2026-05-07 16:18 | 28.41160 | 113.43176 | 11243 ft | 367 kts | 56° |
| 2026-05-07 16:19 | 28.42747 | 113.45509 | 11593 ft | 380 kts | 42° |
| 2026-05-07 16:19 | 28.44940 | 113.47164 | 12242 ft | 380 kts | 21° |
| 2026-05-07 16:19 | 28.47496 | 113.47918 | 12854 ft | 381 kts | 2° |
| 2026-05-07 16:19 | 28.50108 | 113.48131 | 13531 ft | 384 kts | 1° |
| 2026-05-07 16:20 | 28.52826 | 113.48349 | 14183 ft | 388 kts | 1° |
| 2026-05-07 16:20 | 28.55540 | 113.48553 | 14812 ft | 392 kts | 0° |
| 2026-05-07 16:20 | 28.58277 | 113.48753 | 15423 ft | 397 kts | 0° |
| 2026-05-07 16:20 | 28.61041 | 113.48953 | 16024 ft | 401 kts | 0° |
| 2026-05-07 16:21 | 28.63804 | 113.49152 | 16607 ft | 405 kts | 0° |
| 2026-05-07 16:21 | 28.66632 | 113.49356 | 17170 ft | 410 kts | 0° |
| 2026-05-07 16:21 | 28.69493 | 113.49562 | 17723 ft | 414 kts | 0° |
| 2026-05-07 16:21 | 28.72386 | 113.49770 | 18268 ft | 419 kts | 0° |
| 2026-05-07 16:22 | 28.75349 | 113.49983 | 18749 ft | 423 kts | 360° |
| 2026-05-07 16:22 | 28.78286 | 113.50194 | 19248 ft | 425 kts | 360° |
| 2026-05-07 16:22 | 28.81210 | 113.50404 | 19741 ft | 427 kts | 359° |
| 2026-05-07 16:22 | 28.84217 | 113.50619 | 20250 ft | 429 kts | 359° |
| 2026-05-07 16:23 | 28.87202 | 113.50834 | 20729 ft | 431 kts | 359° |
| 2026-05-07 16:23 | 28.90205 | 113.51050 | 21174 ft | 434 kts | 359° |
| 2026-05-07 16:23 | 28.93222 | 113.51267 | 21624 ft | 436 kts | 359° |
| 2026-05-07 16:23 | 28.96263 | 113.51487 | 22046 ft | 439 kts | 358° |
| 2026-05-07 16:24 | 28.99271 | 113.51703 | 22483 ft | 441 kts | 358° |
| 2026-05-07 16:24 | 29.02385 | 113.51927 | 22908 ft | 443 kts | 358° |
| 2026-05-07 16:24 | 29.05426 | 113.52147 | 23317 ft | 446 kts | 358° |
| 2026-05-07 16:24 | 29.08578 | 113.52374 | 23706 ft | 449 kts | 358° |
| 2026-05-07 16:25 | 29.11693 | 113.52599 | 24030 ft | 451 kts | 358° |
| 2026-05-07 16:25 | 29.14821 | 113.52825 | 24372 ft | 452 kts | 358° |
| 2026-05-07 16:25 | 29.17967 | 113.53052 | 24722 ft | 454 kts | 358° |
| 2026-05-07 16:25 | 29.21123 | 113.53281 | 25048 ft | 456 kts | 358° |
| 2026-05-07 16:26 | 29.24301 | 113.53511 | 25380 ft | 457 kts | 358° |
| 2026-05-07 16:26 | 29.27482 | 113.53744 | 25678 ft | 460 kts | 358° |
| 2026-05-07 16:26 | 29.30660 | 113.54018 | 25974 ft | 463 kts | 358° |
| 2026-05-07 16:26 | 29.32828 | 113.54209 | 26263 ft | 462 kts | 358° |
| 2026-05-07 16:27 | 29.37066 | 113.54575 | 26875 ft | 460 kts | 358° |
| 2026-05-07 16:27 | 29.40244 | 113.54850 | 27346 ft | 459 kts | 357° |
| 2026-05-07 16:27 | 29.43425 | 113.55124 | 27834 ft | 458 kts | 357° |
| 2026-05-07 16:27 | 29.46645 | 113.55402 | 28339 ft | 457 kts | 357° |
| 2026-05-07 16:28 | 29.49803 | 113.55675 | 28849 ft | 455 kts | 357° |
| 2026-05-07 16:28 | 29.52957 | 113.55947 | 29358 ft | 454 kts | 356° |
| 2026-05-07 16:28 | 29.56061 | 113.56216 | 29884 ft | 452 kts | 356° |
| 2026-05-07 16:28 | 29.59240 | 113.56491 | 30371 ft | 451 kts | 356° |
| 2026-05-07 16:29 | 29.62353 | 113.56761 | 30830 ft | 449 kts | 356° |
| 2026-05-07 16:29 | 29.65425 | 113.57027 | 31246 ft | 448 kts | 356° |
| 2026-05-07 16:29 | 29.68572 | 113.57300 | 31693 ft | 447 kts | 356° |
| 2026-05-07 16:29 | 29.71627 | 113.57565 | 32122 ft | 445 kts | 356° |
| 2026-05-07 16:30 | 29.74751 | 113.57836 | 32572 ft | 444 kts | 355° |
| 2026-05-07 16:30 | 29.77782 | 113.58099 | 33010 ft | 442 kts | 355° |
| 2026-05-07 16:30 | 29.80846 | 113.58365 | 33449 ft | 440 kts | 355° |
| 2026-05-07 16:30 | 29.83898 | 113.58631 | 33884 ft | 439 kts | 355° |
| 2026-05-07 16:31 | 29.86977 | 113.58899 | 34325 ft | 437 kts | 355° |
| 2026-05-07 16:31 | 29.89986 | 113.59160 | 34677 ft | 436 kts | 355° |
| 2026-05-07 16:31 | 29.93016 | 113.59447 | 34954 ft | 439 kts | 358° |
| 2026-05-07 16:31 | 29.95984 | 113.60346 | 35110 ft | 456 kts | 13° |
| 2026-05-07 16:32 | 29.98900 | 113.61811 | 35217 ft | 458 kts | 13° |
| 2026-05-07 16:32 | 30.04764 | 113.64673 | 35229 ft | 457 kts | 13° |
| 2026-05-07 16:33 | 30.10597 | 113.67576 | 35221 ft | 457 kts | 14° |
| 2026-05-07 16:33 | 30.16430 | 113.70489 | 35229 ft | 456 kts | 14° |
| 2026-05-07 16:34 | 30.22251 | 113.73400 | 35225 ft | 456 kts | 14° |
| 2026-05-07 16:34 | 30.28080 | 113.76319 | 35213 ft | 457 kts | 14° |
| 2026-05-07 16:35 | 30.33930 | 113.79252 | 35219 ft | 458 kts | 14° |
| 2026-05-07 16:35 | 30.39759 | 113.82178 | 35233 ft | 458 kts | 14° |
| 2026-05-07 16:36 | 30.45602 | 113.85116 | 35229 ft | 458 kts | 14° |
| 2026-05-07 16:36 | 30.51480 | 113.88073 | 35221 ft | 466 kts | 14° |
| 2026-05-07 16:37 | 30.57518 | 113.91117 | 35229 ft | 482 kts | 14° |
| 2026-05-07 16:37 | 30.62567 | 113.94110 | 35216 ft | 504 kts | 29° |
| 2026-05-07 16:37 | 30.65156 | 113.96941 | 35247 ft | 520 kts | 45° |
| 2026-05-07 16:38 | 30.67209 | 114.00455 | 35260 ft | 528 kts | 52° |
| 2026-05-07 16:38 | 30.71186 | 114.07639 | 35257 ft | 529 kts | 51° |
| 2026-05-07 16:39 | 30.75131 | 114.14807 | 35247 ft | 527 kts | 52° |
| 2026-05-07 16:39 | 30.78797 | 114.22207 | 35257 ft | 535 kts | 65° |
| 2026-05-07 16:40 | 30.81460 | 114.30317 | 35247 ft | 535 kts | 65° |
| 2026-05-07 16:40 | 30.84091 | 114.38424 | 35220 ft | 537 kts | 65° |
| 2026-05-07 16:41 | 30.86722 | 114.46543 | 35218 ft | 536 kts | 65° |
| 2026-05-07 16:41 | 30.89362 | 114.54664 | 35216 ft | 536 kts | 65° |
| 2026-05-07 16:42 | 30.91995 | 114.62788 | 35221 ft | 536 kts | 66° |
| 2026-05-07 16:42 | 30.94619 | 114.70904 | 35247 ft | 536 kts | 66° |
| 2026-05-07 16:43 | 30.97222 | 114.78977 | 35214 ft | 535 kts | 66° |
| 2026-05-07 16:43 | 30.99851 | 114.87148 | 35221 ft | 535 kts | 66° |
| 2026-05-07 16:44 | 31.02439 | 114.95214 | 35219 ft | 535 kts | 66° |
| 2026-05-07 16:44 | 31.05042 | 115.03343 | 35215 ft | 535 kts | 67° |
| 2026-05-07 16:45 | 31.07640 | 115.11477 | 35219 ft | 535 kts | 67° |
| 2026-05-07 16:45 | 31.10233 | 115.19620 | 35259 ft | 535 kts | 65° |
| 2026-05-07 16:46 | 31.12824 | 115.27781 | 35205 ft | 537 kts | 65° |
| 2026-05-07 16:46 | 31.15474 | 115.35932 | 35260 ft | 538 kts | 66° |
| 2026-05-07 16:47 | 31.18116 | 115.44111 | 35224 ft | 538 kts | 66° |
| 2026-05-07 16:47 | 31.20748 | 115.52278 | 35232 ft | 538 kts | 66° |
| 2026-05-07 16:48 | 31.23378 | 115.60457 | 35241 ft | 538 kts | 66° |
| 2026-05-07 16:48 | 31.26001 | 115.68634 | 35245 ft | 539 kts | 66° |
| 2026-05-07 16:49 | 31.28623 | 115.76830 | 35239 ft | 539 kts | 66° |
| 2026-05-07 16:49 | 31.31244 | 115.85042 | 35251 ft | 539 kts | 66° |
| 2026-05-07 16:50 | 31.33910 | 115.93222 | 35257 ft | 539 kts | 65° |
| 2026-05-07 16:50 | 31.36584 | 116.01423 | 35264 ft | 539 kts | 65° |
| 2026-05-07 16:51 | 31.39245 | 116.09612 | 35245 ft | 539 kts | 65° |
| 2026-05-07 16:51 | 31.41904 | 116.17810 | 35269 ft | 538 kts | 65° |
| 2026-05-07 16:52 | 31.44550 | 116.25991 | 35255 ft | 537 kts | 65° |
| 2026-05-07 16:52 | 31.47194 | 116.34186 | 35257 ft | 539 kts | 65° |
| 2026-05-07 16:53 | 31.49839 | 116.42408 | 35257 ft | 539 kts | 65° |
| 2026-05-07 16:53 | 31.52481 | 116.50641 | 35254 ft | 539 kts | 65° |
| 2026-05-07 16:54 | 31.55112 | 116.58859 | 35250 ft | 539 kts | 66° |
| 2026-05-07 16:54 | 31.57728 | 116.67053 | 35265 ft | 534 kts | 66° |
| 2026-05-07 16:55 | 31.60329 | 116.75216 | 35261 ft | 534 kts | 66° |
| 2026-05-07 16:55 | 31.62919 | 116.83372 | 35259 ft | 534 kts | 66° |
| 2026-05-07 16:56 | 31.65509 | 116.91544 | 35260 ft | 536 kts | 66° |
| 2026-05-07 16:56 | 31.69383 | 117.03887 | 35266 ft | 537 kts | 66° |
| 2026-05-07 16:57 | 31.71926 | 117.12100 | 35272 ft | 533 kts | 66° |
| 2026-05-07 16:57 | 31.74454 | 117.20278 | 35259 ft | 534 kts | 66° |
| 2026-05-07 16:58 | 31.76866 | 117.28532 | 35249 ft | 537 kts | 76° |
| 2026-05-07 16:58 | 31.77233 | 117.32901 | 35251 ft | 538 kts | 92° |
| 2026-05-07 16:58 | 31.76963 | 117.37299 | 35261 ft | 541 kts | 94° |
| 2026-05-07 16:59 | 31.76408 | 117.46101 | 35270 ft | 542 kts | 95° |
| 2026-05-07 16:59 | 31.75797 | 117.54940 | 35261 ft | 543 kts | 95° |
| 2026-05-07 17:00 | 31.75178 | 117.63785 | 35259 ft | 543 kts | 95° |
| 2026-05-07 17:00 | 31.74553 | 117.72607 | 35264 ft | 543 kts | 95° |
| 2026-05-07 17:01 | 31.73921 | 117.81456 | 35264 ft | 543 kts | 95° |
| 2026-05-07 17:01 | 31.73283 | 117.90290 | 35266 ft | 543 kts | 95° |
| 2026-05-07 17:02 | 31.72640 | 117.99123 | 35287 ft | 543 kts | 95° |
| 2026-05-07 17:02 | 31.71992 | 118.07946 | 35253 ft | 543 kts | 95° |
| 2026-05-07 17:03 | 31.71381 | 118.16777 | 35255 ft | 543 kts | 95° |
| 2026-05-07 17:03 | 31.70764 | 118.25627 | 35254 ft | 543 kts | 95° |
| 2026-05-07 17:04 | 31.70142 | 118.34446 | 35259 ft | 543 kts | 95° |
| 2026-05-07 17:04 | 31.69516 | 118.43239 | 35259 ft | 544 kts | 95° |
| 2026-05-07 17:05 | 31.68876 | 118.52149 | 35252 ft | 544 kts | 95° |
| 2026-05-07 17:05 | 31.68235 | 118.60981 | 35249 ft | 544 kts | 95° |
| 2026-05-07 17:06 | 31.67587 | 118.69832 | 35243 ft | 544 kts | 95° |
| 2026-05-07 17:06 | 31.66936 | 118.78629 | 35266 ft | 545 kts | 95° |
| 2026-05-07 17:07 | 31.66275 | 118.87485 | 35252 ft | 544 kts | 95° |
| 2026-05-07 17:07 | 31.65606 | 118.96383 | 35253 ft | 545 kts | 96° |
| 2026-05-07 17:08 | 31.64993 | 119.05189 | 35258 ft | 546 kts | 94° |
| 2026-05-07 17:08 | 31.64501 | 119.14442 | 35233 ft | 546 kts | 93° |
| 2026-05-07 17:09 | 31.64179 | 119.21825 | 35238 ft | 546 kts | 93° |
| 2026-05-07 17:09 | 31.63770 | 119.30714 | 35239 ft | 546 kts | 93° |
| 2026-05-07 17:10 | 31.63284 | 119.41132 | 35245 ft | 547 kts | 93° |
| 2026-05-07 17:10 | 31.62935 | 119.48528 | 35234 ft | 547 kts | 94° |
| 2026-05-07 17:11 | 31.62509 | 119.57422 | 35237 ft | 547 kts | 94° |
| 2026-05-07 17:11 | 31.62079 | 119.66335 | 35237 ft | 548 kts | 93° |
| 2026-05-07 17:12 | 31.61675 | 119.75262 | 35239 ft | 548 kts | 93° |
| 2026-05-07 17:12 | 31.61263 | 119.84150 | 35223 ft | 548 kts | 94° |
| 2026-05-07 17:13 | 31.60844 | 119.93066 | 35227 ft | 548 kts | 94° |
| 2026-05-07 17:13 | 31.60419 | 120.01986 | 35222 ft | 548 kts | 94° |
| 2026-05-07 17:14 | 31.59984 | 120.10957 | 35232 ft | 548 kts | 94° |
| 2026-05-07 17:14 | 31.59547 | 120.19870 | 35233 ft | 548 kts | 94° |
| 2026-05-07 17:15 | 31.59103 | 120.28746 | 35227 ft | 548 kts | 95° |
| 2026-05-07 17:15 | 31.58474 | 120.33129 | 35206 ft | 543 kts | 109° |
| 2026-05-07 17:15 | 31.57279 | 120.37305 | 35241 ft | 544 kts | 111° |
| 2026-05-07 17:16 | 31.54849 | 120.45693 | 35228 ft | 543 kts | 112° |
| 2026-05-07 17:16 | 31.52353 | 120.54064 | 35220 ft | 543 kts | 112° |
| 2026-05-07 17:17 | 31.49849 | 120.62424 | 35224 ft | 543 kts | 112° |
| 2026-05-07 17:17 | 31.47219 | 120.70690 | 35189 ft | 538 kts | 123° |
| 2026-05-07 17:18 | 31.43021 | 120.77806 | 35196 ft | 534 kts | 128° |
| 2026-05-07 17:18 | 31.38992 | 120.85128 | 35221 ft | 535 kts | 127° |
| 2026-05-07 17:19 | 31.35017 | 120.92468 | 35217 ft | 535 kts | 127° |
| 2026-05-07 17:19 | 31.31034 | 120.99823 | 35217 ft | 535 kts | 127° |
| 2026-05-07 17:20 | 31.27048 | 121.07169 | 35220 ft | 535 kts | 127° |
| 2026-05-07 17:20 | 31.23067 | 121.14491 | 35225 ft | 535 kts | 127° |
| 2026-05-07 17:21 | 31.19075 | 121.21821 | 35230 ft | 535 kts | 127° |
| 2026-05-07 17:21 | 31.15081 | 121.29139 | 35227 ft | 534 kts | 127° |
| 2026-05-07 17:22 | 31.12058 | 121.36793 | 35219 ft | 542 kts | 102° |
| 2026-05-07 17:22 | 31.10847 | 121.45513 | 35213 ft | 545 kts | 100° |
| 2026-05-07 17:23 | 31.09672 | 121.54196 | 35212 ft | 546 kts | 100° |
| 2026-05-07 17:23 | 31.08499 | 121.62937 | 35202 ft | 545 kts | 100° |
| 2026-05-07 17:24 | 31.07324 | 121.71661 | 35202 ft | 545 kts | 100° |
| 2026-05-07 17:24 | 31.06161 | 121.80239 | 35196 ft | 545 kts | 100° |
| 2026-05-07 17:25 | 31.04972 | 121.88972 | 35196 ft | 544 kts | 100° |
| 2026-05-07 17:25 | 31.03780 | 121.97682 | 35196 ft | 544 kts | 100° |
| 2026-05-07 17:26 | 31.02580 | 122.06400 | 35197 ft | 545 kts | 100° |
| 2026-05-07 17:26 | 31.01375 | 122.15114 | 35193 ft | 544 kts | 100° |
| 2026-05-07 17:27 | 31.00181 | 122.23787 | 35186 ft | 544 kts | 98° |
| 2026-05-07 17:27 | 31.00018 | 122.32590 | 35182 ft | 545 kts | 90° |
| 2026-05-07 17:28 | 31.00003 | 122.41421 | 35182 ft | 545 kts | 90° |
| 2026-05-07 17:28 | 31.00007 | 122.50264 | 35185 ft | 545 kts | 90° |
| 2026-05-07 17:29 | 31.00004 | 122.59101 | 35183 ft | 545 kts | 90° |
| 2026-05-07 17:29 | 31.00008 | 122.67942 | 35182 ft | 546 kts | 90° |
| 2026-05-07 17:30 | 31.00014 | 122.76798 | 35175 ft | 547 kts | 90° |
| 2026-05-07 17:30 | 31.00013 | 122.85650 | 35175 ft | 547 kts | 90° |
| 2026-05-07 17:31 | 31.00058 | 122.94506 | 35160 ft | 546 kts | 84° |
| 2026-05-07 17:31 | 31.00667 | 122.98852 | 35179 ft | 542 kts | 72° |
| 2026-05-07 17:31 | 31.02039 | 123.02909 | 35140 ft | 533 kts | 55° |
| 2026-05-07 17:32 | 31.06187 | 123.10005 | 35144 ft | 530 kts | 50° |
| 2026-05-07 17:32 | 31.10442 | 123.17010 | 35180 ft | 530 kts | 49° |
| 2026-05-07 17:33 | 31.14699 | 123.23971 | 35167 ft | 530 kts | 49° |
| 2026-05-07 17:33 | 31.18980 | 123.30979 | 35167 ft | 530 kts | 49° |
| 2026-05-07 17:34 | 31.23251 | 123.37985 | 35168 ft | 530 kts | 49° |
| 2026-05-07 17:34 | 31.27522 | 123.45003 | 35165 ft | 530 kts | 49° |
| 2026-05-07 17:35 | 31.31791 | 123.52029 | 35157 ft | 530 kts | 49° |
| 2026-05-07 17:35 | 31.36082 | 123.59043 | 35174 ft | 530 kts | 49° |
| 2026-05-07 17:36 | 31.40366 | 123.66054 | 35182 ft | 530 kts | 48° |
| 2026-05-07 17:36 | 31.44648 | 123.73074 | 35172 ft | 529 kts | 48° |
| 2026-05-07 17:37 | 31.48922 | 123.80095 | 35169 ft | 529 kts | 48° |
| 2026-05-07 17:37 | 31.53185 | 123.87110 | 35172 ft | 529 kts | 48° |
| 2026-05-07 17:38 | 31.57458 | 123.94153 | 35167 ft | 529 kts | 48° |
| 2026-05-07 17:38 | 31.61191 | 124.01621 | 35229 ft | 542 kts | 69° |
| 2026-05-07 17:39 | 31.62232 | 124.05878 | 35530 ft | 543 kts | 71° |
| 2026-05-07 17:39 | 31.63238 | 124.10138 | 35770 ft | 545 kts | 71° |
| 2026-05-07 17:39 | 31.64224 | 124.14437 | 36051 ft | 545 kts | 72° |
| 2026-05-07 17:39 | 31.65189 | 124.18737 | 36334 ft | 546 kts | 72° |
| 2026-05-07 17:40 | 31.66151 | 124.23055 | 36593 ft | 546 kts | 72° |
| 2026-05-07 17:40 | 31.67106 | 124.27356 | 36860 ft | 546 kts | 72° |
| 2026-05-07 17:40 | 31.68063 | 124.31668 | 37095 ft | 547 kts | 72° |
| 2026-05-07 17:40 | 31.69020 | 124.35990 | 37077 ft | 546 kts | 72° |
| 2026-05-07 17:41 | 31.70918 | 124.44586 | 37056 ft | 544 kts | 72° |
| 2026-05-07 17:41 | 31.72814 | 124.53197 | 37055 ft | 545 kts | 72° |
| 2026-05-07 17:42 | 31.74702 | 124.61809 | 37057 ft | 545 kts | 72° |
| 2026-05-07 17:42 | 31.76584 | 124.70418 | 37056 ft | 545 kts | 72° |
| 2026-05-07 17:43 | 31.78464 | 124.79047 | 37050 ft | 545 kts | 72° |
| 2026-05-07 17:43 | 31.80337 | 124.87677 | 37051 ft | 545 kts | 72° |
| 2026-05-07 17:44 | 31.82184 | 124.96297 | 37050 ft | 546 kts | 75° |
| 2026-05-07 17:44 | 31.82625 | 125.00728 | 37005 ft | 547 kts | 91° |
| 2026-05-07 17:44 | 31.82142 | 125.05147 | 37056 ft | 544 kts | 103° |
| 2026-05-07 17:45 | 31.80727 | 125.13928 | 37044 ft | 547 kts | 102° |
| 2026-05-07 17:45 | 31.79294 | 125.22713 | 37039 ft | 547 kts | 102° |
| 2026-05-07 17:46 | 31.77852 | 125.31481 | 37035 ft | 547 kts | 102° |
| 2026-05-07 17:46 | 31.76402 | 125.40257 | 37032 ft | 547 kts | 102° |
| 2026-05-07 17:47 | 31.74947 | 125.49024 | 37054 ft | 547 kts | 102° |
| 2026-05-07 17:47 | 31.73491 | 125.57763 | 37028 ft | 545 kts | 102° |
| 2026-05-07 17:48 | 31.72471 | 125.66576 | 36994 ft | 545 kts | 85° |
| 2026-05-07 17:48 | 31.73096 | 125.70919 | 37031 ft | 539 kts | 71° |
| 2026-05-07 17:48 | 31.74064 | 125.75192 | 37009 ft | 543 kts | 73° |
| 2026-05-07 17:49 | 31.75926 | 125.83768 | 37029 ft | 542 kts | 72° |
| 2026-05-07 17:49 | 31.77816 | 125.92339 | 37019 ft | 542 kts | 72° |
| 2026-05-07 17:50 | 31.79694 | 126.00913 | 37022 ft | 542 kts | 72° |
| 2026-05-07 17:50 | 31.81568 | 126.09493 | 37026 ft | 542 kts | 73° |
| 2026-05-07 17:51 | 31.83436 | 126.18077 | 37028 ft | 542 kts | 73° |
| 2026-05-07 17:51 | 31.85299 | 126.26667 | 37002 ft | 542 kts | 73° |
| 2026-05-07 17:52 | 31.87154 | 126.35250 | 37023 ft | 542 kts | 73° |
| 2026-05-07 17:52 | 31.88690 | 126.42382 | 37014 ft | 542 kts | 73° |
| 2026-05-07 17:53 | 31.90883 | 126.52404 | 36998 ft | 541 kts | 73° |
| 2026-05-07 17:53 | 31.92458 | 126.59531 | 37017 ft | 541 kts | 73° |
| 2026-05-07 17:54 | 31.94340 | 126.68086 | 37015 ft | 541 kts | 73° |
| 2026-05-07 17:54 | 31.96221 | 126.76663 | 36993 ft | 541 kts | 73° |
| 2026-05-07 17:55 | 31.98093 | 126.85231 | 37048 ft | 540 kts | 73° |
| 2026-05-07 17:55 | 31.99961 | 126.93807 | 37005 ft | 540 kts | 73° |
| 2026-05-07 17:56 | 32.01816 | 127.02357 | 36996 ft | 539 kts | 73° |
| 2026-05-07 17:56 | 32.03677 | 127.10910 | 36999 ft | 538 kts | 71° |
| 2026-05-07 17:57 | 32.06542 | 127.18975 | 36980 ft | 534 kts | 62° |
| 2026-05-07 17:57 | 32.09534 | 127.26949 | 36993 ft | 533 kts | 62° |
| 2026-05-07 17:58 | 32.12537 | 127.34931 | 36989 ft | 532 kts | 62° |
| 2026-05-07 17:58 | 32.15537 | 127.42924 | 36991 ft | 532 kts | 62° |
| 2026-05-07 17:59 | 32.18523 | 127.50900 | 37020 ft | 532 kts | 63° |
| 2026-05-07 17:59 | 32.21508 | 127.58891 | 36982 ft | 532 kts | 63° |
| 2026-05-07 18:00 | 32.24491 | 127.66893 | 36979 ft | 533 kts | 63° |
| 2026-05-07 18:00 | 32.27464 | 127.74890 | 36973 ft | 532 kts | 63° |
| 2026-05-07 18:01 | 32.30434 | 127.82897 | 37005 ft | 532 kts | 63° |
| 2026-05-07 18:01 | 32.33401 | 127.90913 | 36977 ft | 532 kts | 63° |
| 2026-05-07 18:02 | 32.37838 | 128.02939 | 36973 ft | 531 kts | 63° |
| 2026-05-07 18:03 | 32.40782 | 128.10940 | 36972 ft | 531 kts | 63° |
| 2026-05-07 18:03 | 32.43721 | 128.18950 | 36971 ft | 531 kts | 63° |
| 2026-05-07 18:04 | 32.46655 | 128.26963 | 36968 ft | 530 kts | 63° |
| 2026-05-07 18:04 | 32.49579 | 128.34967 | 36969 ft | 530 kts | 63° |
| 2026-05-07 18:05 | 32.52500 | 128.42984 | 36991 ft | 530 kts | 63° |
| 2026-05-07 18:05 | 32.55416 | 128.51004 | 36960 ft | 530 kts | 63° |
| 2026-05-07 18:06 | 32.58315 | 128.58999 | 36964 ft | 530 kts | 64° |
| 2026-05-07 18:06 | 32.61204 | 128.66982 | 36944 ft | 530 kts | 64° |
| 2026-05-07 18:07 | 32.64106 | 128.75019 | 36948 ft | 531 kts | 64° |
| 2026-05-07 18:07 | 32.66931 | 128.83064 | 36948 ft | 532 kts | 68° |
| 2026-05-07 18:08 | 32.69421 | 128.91286 | 36944 ft | 532 kts | 68° |
| 2026-05-07 18:08 | 32.71962 | 128.99522 | 36952 ft | 532 kts | 68° |
| 2026-05-07 18:09 | 32.74506 | 129.07773 | 36949 ft | 532 kts | 68° |
| 2026-05-07 18:09 | 32.77042 | 129.16021 | 36936 ft | 531 kts | 69° |
| 2026-05-07 18:10 | 32.79571 | 129.24269 | 36941 ft | 531 kts | 69° |
| 2026-05-07 18:10 | 32.82078 | 129.32468 | 36958 ft | 531 kts | 69° |
| 2026-05-07 18:11 | 32.84593 | 129.40715 | 36933 ft | 530 kts | 69° |
| 2026-05-07 18:11 | 32.87100 | 129.48955 | 36936 ft | 530 kts | 69° |
| 2026-05-07 18:12 | 32.89604 | 129.57210 | 36936 ft | 530 kts | 69° |
| 2026-05-07 18:12 | 32.92098 | 129.65456 | 36950 ft | 530 kts | 69° |
| 2026-05-07 18:13 | 32.94588 | 129.73711 | 36931 ft | 530 kts | 69° |
| 2026-05-07 18:13 | 32.97071 | 129.81963 | 36920 ft | 530 kts | 69° |
| 2026-05-07 18:14 | 32.99558 | 129.90253 | 36931 ft | 531 kts | 69° |
| 2026-05-07 18:14 | 33.02038 | 129.98542 | 36929 ft | 532 kts | 70° |
| 2026-05-07 18:15 | 33.04516 | 130.06847 | 36928 ft | 532 kts | 69° |
| 2026-05-07 18:15 | 33.06996 | 130.15178 | 36916 ft | 533 kts | 69° |
| 2026-05-07 18:16 | 33.09462 | 130.23510 | 36963 ft | 533 kts | 70° |
| 2026-05-07 18:16 | 33.11912 | 130.31816 | 36935 ft | 530 kts | 69° |
| 2026-05-07 18:17 | 33.14348 | 130.40100 | 36931 ft | 529 kts | 69° |
| 2026-05-07 18:17 | 33.16778 | 130.48388 | 36898 ft | 529 kts | 70° |
| 2026-05-07 18:18 | 33.19194 | 130.56648 | 36920 ft | 527 kts | 70° |
| 2026-05-07 18:18 | 33.21600 | 130.64897 | 36933 ft | 527 kts | 70° |
| 2026-05-07 18:19 | 33.24006 | 130.73172 | 36922 ft | 527 kts | 70° |
| 2026-05-07 18:19 | 33.26408 | 130.81456 | 36927 ft | 528 kts | 70° |
| 2026-05-07 18:20 | 33.28804 | 130.89745 | 36916 ft | 529 kts | 70° |
| 2026-05-07 18:20 | 33.31196 | 130.98043 | 36919 ft | 527 kts | 71° |
| 2026-05-07 18:21 | 33.33578 | 131.06334 | 36918 ft | 527 kts | 71° |
| 2026-05-07 18:21 | 33.35951 | 131.14611 | 36908 ft | 527 kts | 70° |
| 2026-05-07 18:22 | 33.38325 | 131.22919 | 36913 ft | 529 kts | 70° |
| 2026-05-07 18:22 | 33.40699 | 131.31250 | 36905 ft | 529 kts | 70° |
| 2026-05-07 18:23 | 33.43066 | 131.39583 | 36929 ft | 530 kts | 70° |
| 2026-05-07 18:23 | 33.45434 | 131.47950 | 36892 ft | 530 kts | 70° |
| 2026-05-07 18:24 | 33.47796 | 131.56320 | 36865 ft | 531 kts | 71° |
| 2026-05-07 18:24 | 33.50149 | 131.64681 | 36885 ft | 529 kts | 70° |
| 2026-05-07 18:25 | 33.52491 | 131.73028 | 36897 ft | 529 kts | 71° |
| 2026-05-07 18:25 | 33.54811 | 131.81322 | 36872 ft | 527 kts | 71° |
| 2026-05-07 18:26 | 33.57128 | 131.89627 | 36881 ft | 524 kts | 71° |
| 2026-05-07 18:26 | 33.59435 | 131.97921 | 36912 ft | 525 kts | 71° |
| 2026-05-07 18:27 | 33.61734 | 132.06211 | 36905 ft | 524 kts | 71° |
| 2026-05-07 18:27 | 33.64027 | 132.14506 | 36909 ft | 523 kts | 71° |
| 2026-05-07 18:28 | 33.66315 | 132.22806 | 36898 ft | 523 kts | 72° |
| 2026-05-07 18:28 | 33.68591 | 132.31084 | 36900 ft | 524 kts | 72° |
| 2026-05-07 18:29 | 33.70866 | 132.39387 | 36908 ft | 524 kts | 72° |
| 2026-05-07 18:29 | 33.73135 | 132.47692 | 36909 ft | 523 kts | 72° |
| 2026-05-07 18:30 | 33.75395 | 132.55988 | 36913 ft | 523 kts | 72° |
| 2026-05-07 18:30 | 33.77651 | 132.64294 | 36908 ft | 523 kts | 72° |
| 2026-05-07 18:31 | 33.79901 | 132.72599 | 36905 ft | 522 kts | 72° |
| 2026-05-07 18:31 | 33.82144 | 132.80903 | 36908 ft | 522 kts | 72° |
| 2026-05-07 18:32 | 33.84381 | 132.89209 | 36695 ft | 523 kts | 73° |
| 2026-05-07 18:32 | 33.85168 | 132.93436 | 36103 ft | 515 kts | 88° |
| 2026-05-07 18:32 | 33.85274 | 132.97736 | 35567 ft | 515 kts | 91° |
| 2026-05-07 18:32 | 33.85369 | 133.02053 | 35045 ft | 517 kts | 92° |
| 2026-05-07 18:33 | 33.85443 | 133.06379 | 34515 ft | 518 kts | 92° |
| 2026-05-07 18:33 | 33.85501 | 133.10711 | 34014 ft | 519 kts | 92° |
| 2026-05-07 18:33 | 33.85535 | 133.13583 | 33647 ft | 520 kts | 92° |
| 2026-05-07 18:33 | 33.85788 | 133.19395 | 32869 ft | 524 kts | 86° |
| 2026-05-07 18:34 | 33.86170 | 133.23770 | 32304 ft | 526 kts | 86° |
| 2026-05-07 18:34 | 33.86429 | 133.26674 | 31946 ft | 527 kts | 86° |
| 2026-05-07 18:34 | 33.86826 | 133.31063 | 31431 ft | 529 kts | 86° |
| 2026-05-07 18:34 | 33.87224 | 133.35464 | 30882 ft | 530 kts | 86° |
| 2026-05-07 18:35 | 33.87624 | 133.39890 | 30357 ft | 531 kts | 86° |
| 2026-05-07 18:35 | 33.88104 | 133.45240 | 29679 ft | 532 kts | 86° |
| 2026-05-07 18:35 | 33.88500 | 133.49676 | 29093 ft | 533 kts | 86° |
| 2026-05-07 18:35 | 33.88895 | 133.54115 | 28508 ft | 535 kts | 86° |
| 2026-05-07 18:36 | 33.89291 | 133.58572 | 27949 ft | 536 kts | 86° |
| 2026-05-07 18:36 | 33.89686 | 133.63053 | 27371 ft | 538 kts | 86° |
| 2026-05-07 18:36 | 33.90080 | 133.67533 | 26804 ft | 538 kts | 86° |
| 2026-05-07 18:36 | 33.90466 | 133.71944 | 26276 ft | 539 kts | 86° |
| 2026-05-07 18:37 | 33.90862 | 133.76489 | 25737 ft | 541 kts | 86° |
| 2026-05-07 18:37 | 33.91254 | 133.80996 | 25209 ft | 541 kts | 86° |
| 2026-05-07 18:37 | 33.91638 | 133.85444 | 24699 ft | 538 kts | 86° |
| 2026-05-07 18:37 | 33.92027 | 133.89963 | 24196 ft | 534 kts | 86° |
| 2026-05-07 18:38 | 33.92406 | 133.94396 | 23719 ft | 531 kts | 86° |
| 2026-05-07 18:38 | 33.92823 | 133.98745 | 23181 ft | 528 kts | 85° |
| 2026-05-07 18:38 | 33.93296 | 134.03148 | 22583 ft | 524 kts | 85° |
| 2026-05-07 18:38 | 33.93748 | 134.07476 | 22022 ft | 515 kts | 85° |
| 2026-05-07 18:39 | 33.94187 | 134.11717 | 21453 ft | 505 kts | 85° |
| 2026-05-07 18:39 | 33.94617 | 134.15881 | 20933 ft | 500 kts | 85° |
| 2026-05-07 18:39 | 33.95042 | 134.20028 | 20405 ft | 495 kts | 85° |
| 2026-05-07 18:39 | 33.95461 | 134.24113 | 19878 ft | 490 kts | 85° |
| 2026-05-07 18:40 | 33.95876 | 134.28175 | 19354 ft | 486 kts | 86° |
| 2026-05-07 18:40 | 33.96282 | 134.32179 | 18849 ft | 482 kts | 85° |
| 2026-05-07 18:40 | 33.96687 | 134.36169 | 18355 ft | 477 kts | 86° |
| 2026-05-07 18:40 | 33.97085 | 134.40112 | 17811 ft | 472 kts | 86° |
| 2026-05-07 18:41 | 33.97479 | 134.44015 | 17243 ft | 468 kts | 85° |
| 2026-05-07 18:41 | 33.97869 | 134.47902 | 16698 ft | 464 kts | 85° |
| 2026-05-07 18:41 | 33.98253 | 134.51742 | 16160 ft | 461 kts | 85° |
| 2026-05-07 18:41 | 33.98634 | 134.55564 | 15626 ft | 457 kts | 85° |
| 2026-05-07 18:42 | 33.99011 | 134.59347 | 15112 ft | 453 kts | 85° |
| 2026-05-07 18:42 | 33.99381 | 134.63084 | 14598 ft | 449 kts | 85° |
| 2026-05-07 18:42 | 33.99749 | 134.66797 | 14120 ft | 445 kts | 85° |
| 2026-05-07 18:42 | 34.00272 | 134.70460 | 13604 ft | 443 kts | 74° |
| 2026-05-07 18:43 | 34.01459 | 134.73866 | 13060 ft | 439 kts | 65° |
| 2026-05-07 18:43 | 34.02763 | 134.77175 | 12512 ft | 434 kts | 64° |
| 2026-05-07 18:43 | 34.04068 | 134.80435 | 12043 ft | 429 kts | 64° |
| 2026-05-07 18:43 | 34.05369 | 134.83649 | 11760 ft | 424 kts | 64° |
| 2026-05-07 18:44 | 34.06649 | 134.86798 | 11517 ft | 412 kts | 64° |
| 2026-05-07 18:44 | 34.07886 | 134.89837 | 11265 ft | 402 kts | 64° |
| 2026-05-07 18:44 | 34.09105 | 134.92832 | 11004 ft | 392 kts | 64° |
| 2026-05-07 18:44 | 34.10290 | 134.95746 | 10747 ft | 384 kts | 64° |
| 2026-05-07 18:45 | 34.11454 | 134.98611 | 10488 ft | 375 kts | 64° |
| 2026-05-07 18:45 | 34.12592 | 135.01413 | 10263 ft | 367 kts | 64° |
| 2026-05-07 18:45 | 34.13698 | 135.04140 | 10133 ft | 356 kts | 64° |
| 2026-05-07 18:45 | 34.14768 | 135.06780 | 10005 ft | 346 kts | 64° |
| 2026-05-07 18:46 | 34.15809 | 135.09349 | 9881 ft | 336 kts | 64° |
| 2026-05-07 18:46 | 34.16826 | 135.11843 | 9747 ft | 326 kts | 64° |
| 2026-05-07 18:46 | 34.17835 | 135.14264 | 9603 ft | 318 kts | 63° |
| 2026-05-07 18:46 | 34.18857 | 135.16580 | 9461 ft | 310 kts | 62° |
| 2026-05-07 18:47 | 34.19870 | 135.18843 | 9316 ft | 303 kts | 62° |
| 2026-05-07 18:47 | 34.20856 | 135.21050 | 9043 ft | 302 kts | 62° |
| 2026-05-07 18:47 | 34.21866 | 135.23314 | 8802 ft | 302 kts | 62° |
| 2026-05-07 18:47 | 34.22862 | 135.25552 | 8557 ft | 302 kts | 62° |
| 2026-05-07 18:48 | 34.23846 | 135.27781 | 8281 ft | 300 kts | 62° |
| 2026-05-07 18:48 | 34.24820 | 135.29973 | 8047 ft | 299 kts | 62° |
| 2026-05-07 18:48 | 34.25802 | 135.32184 | 7813 ft | 298 kts | 62° |
| 2026-05-07 18:48 | 34.26463 | 135.33674 | 7647 ft | 298 kts | 62° |
| 2026-05-07 18:49 | 34.27766 | 135.36619 | 7335 ft | 296 kts | 62° |
| 2026-05-07 18:49 | 34.28446 | 135.38050 | 7181 ft | 295 kts | 55° |
| 2026-05-07 18:49 | 34.30087 | 135.40691 | 6866 ft | 294 kts | 52° |
| 2026-05-07 18:49 | 34.30921 | 135.42013 | 6717 ft | 293 kts | 52° |
| 2026-05-07 18:50 | 34.32151 | 135.43960 | 6480 ft | 291 kts | 52° |
| 2026-05-07 18:50 | 34.33351 | 135.45870 | 6334 ft | 288 kts | 53° |
| 2026-05-07 18:50 | 34.34564 | 135.47778 | 6242 ft | 285 kts | 51° |
| 2026-05-07 18:50 | 34.35775 | 135.49694 | 6135 ft | 286 kts | 52° |
| 2026-05-07 18:51 | 34.37113 | 135.51482 | 5941 ft | 287 kts | 41° |
| 2026-05-07 18:51 | 34.38506 | 135.53173 | 5786 ft | 283 kts | 50° |
| 2026-05-07 18:51 | 34.39717 | 135.55061 | 5648 ft | 284 kts | 52° |
| 2026-05-07 18:51 | 34.40927 | 135.56960 | 5522 ft | 283 kts | 46° |
| 2026-05-07 18:52 | 34.42517 | 135.58282 | 5893 ft | 280 kts | 23° |
| 2026-05-07 18:52 | 34.44178 | 135.59551 | 5781 ft | 286 kts | 42° |
| 2026-05-07 18:52 | 34.45468 | 135.61372 | 5531 ft | 284 kts | 51° |
| 2026-05-07 18:52 | 34.46797 | 135.63092 | 5267 ft | 279 kts | 32° |
| 2026-05-07 18:53 | 34.48531 | 135.64060 | 4997 ft | 272 kts | 15° |
| 2026-05-07 18:53 | 34.50340 | 135.64735 | 4699 ft | 272 kts | 14° |
| 2026-05-07 18:53 | 34.52155 | 135.65389 | 4401 ft | 272 kts | 14° |
| 2026-05-07 18:53 | 34.53988 | 135.66046 | 4101 ft | 271 kts | 14° |
| 2026-05-07 18:54 | 34.55750 | 135.66675 | 3956 ft | 263 kts | 14° |
| 2026-05-07 18:54 | 34.57490 | 135.67089 | 3867 ft | 249 kts | 355° |
| 2026-05-07 18:54 | 34.59106 | 135.66605 | 3813 ft | 228 kts | 328° |
| 2026-05-07 18:54 | 34.60373 | 135.65530 | 3575 ft | 220 kts | 314° |
| 2026-05-07 18:55 | 34.61483 | 135.64250 | 3539 ft | 221 kts | 311° |
| 2026-05-07 18:55 | 34.62547 | 135.62968 | 3582 ft | 208 kts | 310° |
| 2026-05-07 18:55 | 34.63539 | 135.61768 | 3517 ft | 195 kts | 310° |
| 2026-05-07 18:55 | 34.64484 | 135.60624 | 3404 ft | 193 kts | 310° |
| 2026-05-07 18:56 | 34.65432 | 135.59474 | 3174 ft | 192 kts | 310° |
| 2026-05-07 18:56 | 34.66375 | 135.58332 | 2928 ft | 191 kts | 310° |
| 2026-05-07 18:56 | 34.67312 | 135.57200 | 2715 ft | 191 kts | 310° |
| 2026-05-07 18:56 | 34.68249 | 135.56063 | 2470 ft | 191 kts | 310° |
| 2026-05-07 18:57 | 34.69191 | 135.54922 | 2227 ft | 191 kts | 311° |
| 2026-05-07 18:57 | 34.70128 | 135.53786 | 1979 ft | 191 kts | 311° |
| 2026-05-07 18:57 | 34.71063 | 135.52653 | 1774 ft | 183 kts | 311° |
| 2026-05-07 18:57 | 34.71928 | 135.51606 | 1511 ft | 177 kts | 311° |
| 2026-05-07 18:58 | 34.72768 | 135.50587 | 1309 ft | 163 kts | 312° |
| 2026-05-07 18:58 | 34.73555 | 135.49630 | 1074 ft | 159 kts | 312° |
| 2026-05-07 18:58 | 34.74325 | 135.48689 | 872 ft | 155 kts | 313° |
| 2026-05-07 18:58 | 34.75077 | 135.47762 | 657 ft | 153 kts | 314° |
| 2026-05-07 18:59 | 34.75820 | 135.46855 | 456 ft | 150 kts | 314° |
| 2026-05-07 18:59 | 34.76570 | 135.45977 | 258 ft | 150 kts | 314° |
| 2026-05-07 18:59 | 34.77323 | 135.45069 | 60 ft | 156 kts | 314° |
| 2026-05-07 18:59 | 34.77978 | 135.44271 | 51 ft | 98 kts | 314° |
| 2026-05-07 19:00 | 34.78300 | 135.43879 | 50 ft | 37 kts | 315° |
| 2026-05-07 19:00 | 34.78415 | 135.43766 | 50 ft | 33 kts | 329° |
| 2026-05-07 19:00 | 34.78560 | 135.43706 | 53 ft | 15 kts | 345° |
| 2026-05-07 19:00 | 34.78673 | 135.43693 | 49 ft | 17 kts | 11° |
| 2026-05-07 19:01 | 34.78764 | 135.43752 | 50 ft | 16 kts | 40° |
| 2026-05-07 19:01 | 34.78839 | 135.43846 | 51 ft | 14 kts | 44° |
| 2026-05-07 19:01 | 34.78903 | 135.43914 | 51 ft | 12 kts | 57° |
| 2026-05-07 19:01 | 34.78943 | 135.44015 | 53 ft | 14 kts | 66° |
| 2026-05-07 19:02 | 34.78962 | 135.44077 | 50 ft | 3 kts | 68° |
| 2026-05-07 19:02 | 34.78971 | 135.44102 | 53 ft | 2 kts | 67° |
| 2026-05-07 19:02 | 34.78971 | 135.44104 | 53 ft | 0 kts | 67° |